Terminal Aerodrome Forecast
Issued by NWS Green Bay, WI

Home | Current Version | Previous Version | Graphics & Text | Print | Product List | Glossary On
Versions: 1 2 3 4 5 6 7 8 9 10 11 12 13 14 15 16 17 18 19 20 21 22 23 24 25 26 27 28 29 30 31 32 33 34 35 36 37 38 39 40 41 42 43 44 45 46
205
FTUS43 KGRB 211149
TAFGRB
TAF
KGRB 211149Z 2112/2212 07008KT 2SM BR OVC003
      TEMPO 2112/2113 SHRA
     FM211300 13005KT 3SM BR OVC004
     FM211500 18007KT 5SM BR BKN009
     FM211700 23012G21KT P6SM BKN025
     FM220100 23010KT P6SM BKN030=

USA.gov is the U.S. government's official web portal to all federal, state and local government web resources and services.